Time;durP1;ratioP1;P1;durP2;ratioP2;P2;SDS_P1;SDS_P2;PMS_P1;PMS_P2;Temp;Humidity;BMP_temperature;BMP_pressure;BME280_temperature;BME280_humidity;BME280_pressure;Samples;Min_cycle;Max_cycle;Signal;HPM_P1;HPM_P2
2022/07/31 00:00:18;;;;;;;8.68;2.08;;;22.80;45.00;;;;;;5071699;28;20611;-75
2022/07/31 00:02:46;;;;;;;2.25;1.85;;;22.80;47.00;;;;;;5071079;28;20208;-74
2022/07/31 00:05:13;;;;;;;2.60;2.25;;;22.80;45.70;;;;;;5071229;28;20206;-74
2022/07/31 00:07:40;;;;;;;2.08;1.90;;;22.80;46.80;;;;;;5070660;28;20665;-75
2022/07/31 00:10:08;;;;;;;3.25;1.83;;;22.80;46.60;;;;;;5071033;28;20668;-75
2022/07/31 00:12:35;;;;;;;2.13;2.03;;;22.80;46.90;;;;;;5071044;28;20681;-74
2022/07/31 00:15:03;;;;;;;2.33;1.95;;;22.70;47.40;;;;;;5070999;28;20221;-74
2022/07/31 00:17:31;;;;;;;2.40;2.20;;;22.50;46.80;;;;;;5071247;28;20292;-74
2022/07/31 00:19:59;;;;;;;2.08;1.70;;;22.50;47.90;;;;;;5070826;28;20206;-74
2022/07/31 00:22:26;;;;;;;2.85;1.95;;;22.50;48.20;;;;;;5071761;28;20263;-74
2022/07/31 00:24:53;;;;;;;1.88;1.77;;;22.40;49.70;;;;;;5069192;28;20293;-74
2022/07/31 00:27:20;;;;;;;13.75;2.58;;;22.40;49.80;;;;;;5070695;28;20206;-74
2022/07/31 00:29:47;;;;;;;1.65;1.55;;;22.40;50.30;;;;;;5070876;28;20214;-74
2022/07/31 00:32:14;;;;;;;1.95;1.83;;;22.40;50.20;;;;;;5070936;28;20256;-74
2022/07/31 00:34:41;;;;;;;3.25;2.00;;;22.50;51.60;;;;;;5070250;28;20587;-74
2022/07/31 00:37:10;;;;;;;1.90;1.80;;;22.60;50.60;;;;;;5070940;28;20202;-74
2022/07/31 00:39:37;;;;;;;2.72;2.13;;;22.50;51.30;;;;;;5070632;28;20230;-75
2022/07/31 00:42:05;;;;;;;2.10;1.55;;;22.50;50.80;;;;;;5070694;28;20599;-74
2022/07/31 00:44:32;;;;;;;1.90;1.80;;;22.40;51.30;;;;;;5070264;28;20236;-74
2022/07/31 00:46:59;;;;;;;2.03;1.80;;;22.30;51.50;;;;;;5070568;28;20252;-74
2022/07/31 00:49:26;;;;;;;1.85;1.67;;;22.40;53.90;;;;;;5070975;28;20214;-75
2022/07/31 00:51:53;;;;;;;2.10;2.00;;;22.40;53.40;;;;;;5070461;28;20673;-74
2022/07/31 00:54:21;;;;;;;1.77;1.63;;;22.20;54.70;;;;;;5070493;28;20259;-74
2022/07/31 00:56:48;;;;;;;2.00;1.90;;;22.10;54.50;;;;;;5070130;28;20210;-75
2022/07/31 00:59:15;;;;;;;2.15;1.95;;;22.10;56.70;;;;;;5069021;28;20708;-74
2022/07/31 01:01:42;;;;;;;2.10;2.00;;;22.10;55.80;;;;;;5067652;28;20207;-74
2022/07/31 01:04:10;;;;;;;2.50;2.30;;;22.10;57.30;;;;;;5070335;28;20210;-74
2022/07/31 01:06:37;;;;;;;2.25;2.10;;;22.10;56.60;;;;;;5070078;28;20202;-74
2022/07/31 01:09:04;;;;;;;2.17;2.03;;;22.00;57.40;;;;;;5070547;28;20267;-74
2022/07/31 01:11:38;;;;;;;2.25;2.05;;;22.10;58.10;;;;;;5070597;28;20206;-75
2022/07/31 01:14:07;;;;;;;1.88;1.77;;;22.20;60.10;;;;;;5070198;28;20217;-74
2022/07/31 01:16:37;;;;;;;3.58;1.85;;;22.10;59.10;;;;;;5056474;28;20206;-74
2022/07/31 01:19:15;;;;;;;2.17;2.03;;;22.00;61.70;;;;;;5070326;28;20315;-74
2022/07/31 01:21:54;;;;;;;2.45;1.77;;;22.00;63.00;;;;;;5056409;28;20202;-74
2022/07/31 01:24:41;;;;;;;2.20;1.95;;;21.90;62.00;;;;;;5070114;28;20228;-74
2022/07/31 01:27:15;;;;;;;3.13;2.40;;;21.90;64.20;;;;;;5070547;28;20205;-74
2022/07/31 01:29:48;;;;;;;3.33;2.00;;;21.90;64.60;;;;;;5069615;28;20657;-74
2022/07/31 01:32:19;;;;;;;2.83;2.40;;;21.90;64.60;;;;;;5069839;28;20692;-74
2022/07/31 01:34:51;;;;;;;2.55;2.17;;;22.00;64.80;;;;;;5069898;28;20206;-74
2022/07/31 01:37:23;;;;;;;2.33;2.13;;;22.00;67.40;;;;;;5070307;28;20217;-74
2022/07/31 01:39:54;;;;;;;2.55;2.30;;;22.00;65.60;;;;;;5069757;28;20234;-75
2022/07/31 01:42:25;;;;;;;2.40;2.17;;;22.00;66.50;;;;;;5065049;28;20263;-74
2022/07/31 01:44:59;;;;;;;2.60;2.00;;;21.90;66.60;;;;;;5069532;28;20210;-75
2022/07/31 01:47:27;;;;;;;2.40;2.20;;;21.90;68.90;;;;;;5070267;28;20259;-75
2022/07/31 01:49:55;;;;;;;2.10;1.90;;;21.80;67.50;;;;;;5069790;28;20206;-74
2022/07/31 01:52:25;;;;;;;2.55;2.35;;;21.80;67.40;;;;;;5070275;28;20616;-74
2022/07/31 01:54:54;;;;;;;2.25;2.05;;;21.80;68.90;;;;;;5069922;28;20259;-74
2022/07/31 01:57:23;;;;;;;2.47;2.28;;;21.80;68.10;;;;;;5072647;28;20248;-74
2022/07/31 01:59:53;;;;;;;3.13;2.22;;;21.70;67.60;;;;;;5073418;28;20262;-74
2022/07/31 02:02:21;;;;;;;2.13;2.00;;;21.70;67.80;;;;;;5073658;28;20202;-75
2022/07/31 02:04:49;;;;;;;2.67;2.20;;;21.70;69.30;;;;;;5073670;28;20235;-74
2022/07/31 02:07:17;;;;;;;3.63;2.05;;;21.70;69.30;;;;;;5073650;28;20252;-74
2022/07/31 02:09:46;;;;;;;3.58;3.25;;;21.80;69.90;;;;;;5073248;28;20210;-74
2022/07/31 02:12:14;;;;;;;2.17;1.98;;;21.80;70.50;;;;;;5073510;28;20206;-74
2022/07/31 02:14:42;;;;;;;2.08;1.95;;;21.80;70.80;;;;;;5072944;28;20218;-74
2022/07/31 02:17:13;;;;;;;3.13;1.88;;;21.90;70.20;;;;;;5073411;28;20213;-74
2022/07/31 02:19:42;;;;;;;3.55;1.70;;;21.90;70.00;;;;;;5057104;28;20610;-74
2022/07/31 02:22:09;;;;;;;2.35;2.15;;;21.80;68.80;;;;;;5073537;28;20289;-74
2022/07/31 02:24:36;;;;;;;2.72;2.17;;;21.70;69.30;;;;;;5072835;28;20734;-74
2022/07/31 02:27:05;;;;;;;3.22;2.25;;;21.70;72.10;;;;;;5073430;28;20206;-74
2022/07/31 02:29:33;;;;;;;1.60;1.50;;;21.60;71.50;;;;;;5073046;28;20236;-74
2022/07/31 02:32:02;;;;;;;3.85;1.90;;;21.60;71.50;;;;;;5073282;28;20206;-74
2022/07/31 02:34:32;;;;;;;2.20;2.00;;;21.60;70.00;;;;;;5073102;28;20263;-74
2022/07/31 02:37:01;;;;;;;2.15;1.95;;;21.40;73.90;;;;;;5073225;28;20214;-74
2022/07/31 02:39:29;;;;;;;2.25;1.75;;;21.40;71.80;;;;;;5073192;28;20226;-74
2022/07/31 02:41:59;;;;;;;2.78;2.58;;;21.50;72.00;;;;;;5073550;28;20255;-75
2022/07/31 02:44:27;;;;;;;2.70;2.22;;;21.50;71.60;;;;;;5072863;28;20238;-74
2022/07/31 02:46:56;;;;;;;3.38;2.40;;;21.40;72.80;;;;;;5073156;28;20202;-74
2022/07/31 02:49:24;;;;;;;2.00;1.90;;;21.20;73.30;;;;;;5073432;28;20699;-74
2022/07/31 02:51:54;;;;;;;2.70;2.40;;;21.30;73.60;;;;;;5072392;28;20205;-74
2022/07/31 02:54:23;;;;;;;2.33;1.98;;;21.20;74.30;;;;;;5073074;28;20214;-74
2022/07/31 02:56:52;;;;;;;3.78;2.03;;;21.10;75.40;;;;;;5069600;28;20234;-74
2022/07/31 02:59:20;;;;;;;2.38;2.28;;;21.30;75.90;;;;;;5072804;28;20312;-74
2022/07/31 03:01:47;;;;;;;3.10;2.88;;;21.30;75.20;;;;;;5072335;28;20206;-74
2022/07/31 03:04:14;;;;;;;2.17;2.08;;;21.30;76.00;;;;;;5072753;28;20255;-74
2022/07/31 03:06:42;;;;;;;3.03;2.05;;;21.30;76.00;;;;;;5071725;28;20202;-74
2022/07/31 03:09:10;;;;;;;3.40;2.42;;;21.10;77.50;;;;;;5072579;28;20209;-74
2022/07/31 03:11:37;;;;;;;2.30;2.20;;;21.10;78.10;;;;;;5072438;28;20206;-74
2022/07/31 03:14:07;;;;;;;2.95;2.33;;;21.00;79.40;;;;;;5072151;28;20218;-74
2022/07/31 03:16:35;;;;;;;2.65;2.05;;;20.90;80.30;;;;;;5072324;28;20210;-75
2022/07/31 03:19:03;;;;;;;3.53;3.22;;;20.90;81.40;;;;;;5072079;28;20270;-74
2022/07/31 03:21:31;;;;;;;3.22;2.42;;;20.90;91.30;;;;;;5072235;28;20632;-75
2022/07/31 03:23:59;;;;;;;4.10;2.08;;;21.10;82.10;;;;;;5072545;28;20213;-74
2022/07/31 03:26:28;;;;;;;2.10;1.90;;;21.20;81.90;;;;;;5072455;28;20268;-74
2022/07/31 03:28:55;;;;;;;3.28;2.22;;;21.00;81.40;;;;;;5072509;28;20460;-74
2022/07/31 03:31:22;;;;;;;2.40;2.13;;;21.10;82.30;;;;;;5072135;28;20232;-74
2022/07/31 03:33:49;;;;;;;2.75;2.55;;;21.10;81.60;;;;;;5069139;28;20557;-74
2022/07/31 03:36:16;;;;;;;2.70;2.50;;;21.10;81.70;;;;;;5072068;28;20202;-74
2022/07/31 03:38:44;;;;;;;2.28;2.17;;;21.20;83.00;;;;;;5071864;28;20260;-74
2022/07/31 03:41:11;;;;;;;2.88;2.03;;;21.00;82.80;;;;;;5072055;28;20206;-75
2022/07/31 03:43:41;;;;;;;2.50;2.30;;;20.90;86.20;;;;;;5071476;28;20206;-74
2022/07/31 03:46:10;;;;;;;2.83;2.58;;;20.90;84.20;;;;;;5071537;28;20661;-74
2022/07/31 03:48:37;;;;;;;2.47;2.28;;;20.90;86.10;;;;;;5071488;28;20206;-74
2022/07/31 03:51:04;;;;;;;2.80;2.20;;;21.00;84.60;;;;;;5072079;28;20206;-75
2022/07/31 03:53:32;;;;;;;2.42;2.10;;;21.00;85.50;;;;;;5071546;28;20225;-74
2022/07/31 03:56:00;;;;;;;5.22;2.72;;;21.00;87.90;;;;;;5071736;28;20228;-74
2022/07/31 03:58:27;;;;;;;3.17;2.88;;;21.00;86.80;;;;;;5071719;28;20199;-74
2022/07/31 04:00:55;;;;;;;2.33;2.13;;;20.90;86.20;;;;;;5071362;28;20295;-74
2022/07/31 04:03:22;;;;;;;4.82;2.30;;;20.80;89.00;;;;;;5071594;28;20272;-74
2022/07/31 04:05:49;;;;;;;2.72;2.15;;;20.80;86.90;;;;;;5071169;28;20202;-74
2022/07/31 04:08:16;;;;;;;2.60;2.33;;;20.80;88.20;;;;;;5071697;28;20271;-75
2022/07/31 04:10:43;;;;;;;2.60;2.40;;;20.70;88.20;;;;;;5071052;28;20286;-74
2022/07/31 04:13:10;;;;;;;2.38;1.92;;;20.60;89.40;;;;;;5068830;28;20213;-74
2022/07/31 04:15:37;;;;;;;3.08;2.88;;;20.60;90.60;;;;;;5070709;28;20631;-74
2022/07/31 04:18:05;;;;;;;2.40;2.20;;;20.50;91.70;;;;;;5071399;28;20206;-74
2022/07/31 04:20:32;;;;;;;3.00;1.98;;;20.50;91.90;;;;;;5070221;28;20295;-74
2022/07/31 04:23:00;;;;;;;2.22;2.03;;;20.50;91.50;;;;;;5071185;28;20198;-74
2022/07/31 04:25:27;;;;;;;2.90;2.50;;;20.50;91.80;;;;;;5071345;28;20665;-74
2022/07/31 04:27:53;;;;;;;2.45;2.28;;;20.50;91.80;;;;;;5070795;28;20662;-74
2022/07/31 04:30:20;;;;;;;3.55;2.63;;;20.50;92.90;;;;;;5071293;28;20210;-74
2022/07/31 04:32:47;;;;;;;5.72;2.33;;;20.40;90.70;;;;;;5070423;28;20256;-74
2022/07/31 04:35:16;;;;;;;2.60;2.40;;;20.50;91.90;;;;;;5071185;28;20264;-74
2022/07/31 04:37:43;;;;;;;3.03;2.40;;;20.40;92.50;;;;;;5070609;28;20217;-75
2022/07/31 04:40:10;;;;;;;2.85;2.65;;;20.50;93.40;;;;;;5070728;28;20234;-74
2022/07/31 04:42:38;;;;;;;2.80;2.60;;;20.60;92.40;;;;;;5070303;28;20202;-74
2022/07/31 04:45:06;;;;;;;2.30;2.10;;;20.60;93.20;;;;;;5070540;28;20742;-74
2022/07/31 04:47:32;;;;;;;2.55;2.35;;;20.60;92.30;;;;;;5068219;28;20252;-74
2022/07/31 04:49:59;;;;;;;2.95;2.30;;;20.50;92.80;;;;;;5070549;28;20206;-74
2022/07/31 04:52:28;;;;;;;2.22;2.13;;;20.50;93.10;;;;;;5071134;28;20264;-74
2022/07/31 04:54:55;;;;;;;2.88;2.53;;;20.50;93.50;;;;;;5070250;28;20206;-75
2022/07/31 04:57:22;;;;;;;2.60;2.40;;;20.40;93.80;;;;;;5070377;28;20206;-74
2022/07/31 04:59:49;;;;;;;2.70;2.50;;;20.40;94.30;;;;;;5069903;28;20730;-74
2022/07/31 05:02:16;;;;;;;2.42;2.05;;;20.30;94.20;;;;;;5070368;28;20213;-74
2022/07/31 05:04:43;;;;;;;2.60;2.30;;;20.30;94.60;;;;;;5070475;28;20202;-74
2022/07/31 05:07:10;;;;;;;2.58;2.38;;;20.30;94.60;;;;;;5070523;28;20206;-74
2022/07/31 05:09:38;;;;;;;3.13;2.20;;;20.30;94.60;;;;;;5070009;28;20202;-74
2022/07/31 05:12:07;;;;;;;3.15;2.95;;;20.20;94.60;;;;;;5070669;28;20206;-74
2022/07/31 05:14:34;;;;;;;2.33;2.13;;;20.30;94.70;;;;;;5056272;28;20221;-74
2022/07/31 05:17:01;;;;;;;2.40;2.20;;;20.40;95.10;;;;;;5070536;28;20206;-74
2022/07/31 05:19:28;;;;;;;2.58;2.38;;;20.50;95.20;;;;;;5070385;28;20712;-74
2022/07/31 05:21:58;;;;;;;2.55;2.35;;;20.50;94.40;;;;;;5070372;28;20644;-74
2022/07/31 05:24:25;;;;;;;2.50;2.30;;;20.40;94.60;;;;;;5070188;28;20717;-74
2022/07/31 05:26:53;;;;;;;4.32;2.58;;;20.40;94.40;;;;;;5067490;28;20631;-74
2022/07/31 05:29:20;;;;;;;2.20;2.03;;;20.40;94.50;;;;;;5070399;28;20275;-74
2022/07/31 05:31:47;;;;;;;2.58;2.38;;;20.50;94.70;;;;;;5073668;28;20202;-74
2022/07/31 05:34:15;;;;;;;2.25;2.05;;;20.50;94.10;;;;;;5074123;28;20263;-74
2022/07/31 05:36:41;;;;;;;3.97;2.20;;;20.60;94.00;;;;;;5073929;28;20675;-74
2022/07/31 05:39:09;;;;;;;2.78;2.28;;;20.70;94.30;;;;;;5074351;28;20263;-75
2022/07/31 05:41:37;;;;;;;2.00;1.90;;;20.70;94.10;;;;;;5073635;28;20238;-74
2022/07/31 05:44:05;;;;;;;2.78;2.58;;;20.70;93.90;;;;;;5074522;28;20210;-74
2022/07/31 05:46:32;;;;;;;2.67;2.10;;;20.80;93.70;;;;;;5073666;28;20202;-75
2022/07/31 05:48:59;;;;;;;2.05;1.95;;;20.80;94.30;;;;;;5074167;28;20233;-74
2022/07/31 05:51:26;;;;;;;2.17;1.98;;;20.90;94.00;;;;;;5074163;28;20217;-74
2022/07/31 05:53:53;;;;;;;1.83;1.73;;;21.00;94.20;;;;;;5073858;28;20206;-75
2022/07/31 05:56:20;;;;;;;2.65;2.30;;;21.00;93.70;;;;;;5073859;28;20734;-74
2022/07/31 05:58:47;;;;;;;4.22;2.63;;;20.90;93.80;;;;;;5073755;28;20279;-74
2022/07/31 06:01:16;;;;;;;2.47;2.20;;;20.90;93.90;;;;;;5073773;28;20245;-74
2022/07/31 06:03:43;;;;;;;2.63;1.98;;;21.10;93.90;;;;;;5071047;28;20248;-74
2022/07/31 06:06:10;;;;;;;2.20;2.00;;;21.10;93.90;;;;;;5073617;28;20263;-74
2022/07/31 06:08:37;;;;;;;3.63;2.70;;;21.10;93.10;;;;;;5073381;28;20316;-74
2022/07/31 06:11:04;;;;;;;4.50;2.35;;;21.20;93.40;;;;;;5073602;28;20252;-74
2022/07/31 06:13:31;;;;;;;1.90;1.80;;;21.30;93.20;;;;;;5073615;28;20218;-74
2022/07/31 06:15:58;;;;;;;2.90;2.30;;;21.50;93.00;;;;;;5073687;28;20210;-74
2022/07/31 06:18:26;;;;;;;3.13;2.10;;;21.50;93.70;;;;;;5073753;28;20669;-74
2022/07/31 06:20:53;;;;;;;3.10;1.80;;;21.50;93.00;;;;;;5073356;28;20233;-74
2022/07/31 06:23:22;;;;;;;3.92;2.28;;;21.60;93.20;;;;;;5073321;28;20622;-74
2022/07/31 06:25:49;;;;;;;3.35;2.22;;;21.60;92.70;;;;;;5072761;28;20237;-74
2022/07/31 06:28:16;;;;;;;2.55;2.25;;;21.60;92.80;;;;;;5073393;28;20287;-74
2022/07/31 06:30:43;;;;;;;2.40;2.20;;;21.80;92.30;;;;;;5072938;28;20202;-74
2022/07/31 06:33:10;;;;;;;2.13;1.83;;;21.80;92.70;;;;;;5073373;28;20271;-74
2022/07/31 06:35:38;;;;;;;2.70;1.83;;;21.70;92.00;;;;;;5073033;28;20272;-74
2022/07/31 06:38:05;;;;;;;6.63;1.90;;;21.80;92.50;;;;;;5072956;28;20248;-74
2022/07/31 06:40:32;;;;;;;3.15;2.13;;;22.00;99.90;;;;;;5072801;28;20234;-74
2022/07/31 06:42:59;;;;;;;1.75;1.65;;;22.10;91.80;;;;;;5070306;28;20214;-74
2022/07/31 06:45:26;;;;;;;2.50;2.30;;;22.10;91.80;;;;;;5072435;28;20631;-75
2022/07/31 06:47:54;;;;;;;2.53;2.30;;;22.20;92.00;;;;;;5072954;28;20213;-75
2022/07/31 06:50:20;;;;;;;3.08;1.90;;;22.30;91.60;;;;;;5073266;28;20210;-74
2022/07/31 06:52:49;;;;;;;2.30;1.80;;;22.30;91.70;;;;;;5072496;28;21088;-74
2022/07/31 06:55:16;;;;;;;5.05;2.10;;;22.50;91.30;;;;;;5072787;28;20206;-75
2022/07/31 06:57:43;;;;;;;1.58;1.48;;;22.60;91.00;;;;;;5072436;28;20217;-73
2022/07/31 07:00:12;;;;;;;1.50;1.40;;;22.80;90.60;;;;;;5072517;28;20226;-73
2022/07/31 07:02:39;;;;;;;3.35;2.15;;;22.90;89.20;;;;;;5072434;28;20654;-79
2022/07/31 07:05:07;;;;;;;3.17;2.88;;;23.10;90.20;;;;;;5072588;28;20271;-79
2022/07/31 07:07:36;;;;;;;1.98;1.80;;;23.60;89.10;;;;;;5072330;28;20210;-79
2022/07/31 07:10:06;;;;;;;2.00;1.80;;;23.50;88.70;;;;;;5072713;28;20267;-78
2022/07/31 07:12:33;;;;;;;5.10;2.63;;;23.50;89.20;;;;;;5071946;28;20263;-78
2022/07/31 07:15:00;;;;;;;2.72;2.20;;;23.50;86.70;;;;;;5072748;28;20222;-78
2022/07/31 07:17:27;;;;;;;2.80;1.95;;;23.50;86.20;;;;;;5073065;28;20206;-78
2022/07/31 07:19:53;;;;;;;2.38;1.75;;;23.70;86.40;;;;;;5070393;28;20202;-78
2022/07/31 07:22:20;;;;;;;4.55;1.95;;;23.80;84.20;;;;;;5073155;28;20206;-77
2022/07/31 07:24:47;;;;;;;2.47;2.25;;;23.80;84.20;;;;;;5072344;28;20257;-79
2022/07/31 07:27:16;;;;;;;1.73;1.63;;;24.20;84.50;;;;;;5072257;28;20255;-79
2022/07/31 07:29:43;;;;;;;3.38;2.00;;;24.30;80.80;;;;;;5071739;28;20264;-78
2022/07/31 07:32:12;;;;;;;10.60;2.38;;;24.80;82.10;;;;;;5069474;28;20292;-79
2022/07/31 07:34:38;;;;;;;5.75;2.55;;;25.90;78.20;;;;;;5074328;28;20584;-80
2022/07/31 07:37:06;;;;;;;3.40;2.10;;;25.30;76.40;;;;;;5076048;28;20268;-81
2022/07/31 07:39:33;;;;;;;3.30;1.92;;;24.90;75.80;;;;;;5064189;28;20201;-78
2022/07/31 07:42:00;;;;;;;2.42;1.80;;;24.80;75.30;;;;;;5075762;28;20237;-79
2022/07/31 07:44:28;;;;;;;2.83;1.80;;;24.90;74.70;;;;;;5078903;28;20202;-74
2022/07/31 07:46:55;;;;;;;3.35;1.90;;;24.80;74.70;;;;;;5077569;28;20206;-75
2022/07/31 07:49:22;;;;;;;2.17;2.08;;;24.80;75.00;;;;;;5083084;28;20205;-75
2022/07/31 07:51:49;;;;;;;1.73;1.63;;;24.80;75.10;;;;;;5075928;28;20703;-75
2022/07/31 07:54:16;;;;;;;3.65;1.55;;;24.80;73.70;;;;;;5082658;28;20261;-75
2022/07/31 07:56:44;;;;;;;3.65;1.92;;;24.90;72.10;;;;;;5082047;28;20259;-74
2022/07/31 07:59:11;;;;;;;3.42;1.88;;;25.00;71.80;;;;;;5084780;28;20251;-76
2022/07/31 08:01:39;;;;;;;4.43;2.28;;;24.90;69.60;;;;;;5084754;28;20275;-76
2022/07/31 08:04:06;;;;;;;2.13;1.80;;;25.20;71.80;;;;;;5084799;28;20205;-76
2022/07/31 08:06:33;;;;;;;1.77;1.52;;;25.40;69.30;;;;;;5076697;28;20209;-76
2022/07/31 08:09:00;;;;;;;2.33;1.50;;;25.40;69.80;;;;;;5071658;28;20636;-76
2022/07/31 08:11:27;;;;;;;3.67;2.03;;;25.40;71.10;;;;;;5072548;28;20213;-76
2022/07/31 08:13:55;;;;;;;6.93;1.60;;;25.60;68.40;;;;;;5073441;28;20214;-76
2022/07/31 08:16:22;;;;;;;3.17;2.30;;;25.70;68.20;;;;;;5072995;28;20213;-76
2022/07/31 08:18:51;;;;;;;2.50;1.52;;;25.70;67.50;;;;;;5073831;28;20589;-76
2022/07/31 08:21:18;;;;;;;1.65;1.48;;;25.70;66.60;;;;;;5073765;28;20671;-76
2022/07/31 08:23:46;;;;;;;2.28;2.10;;;25.80;67.00;;;;;;5074795;28;20206;-76
2022/07/31 08:26:13;;;;;;;1.83;1.60;;;25.90;65.50;;;;;;5075912;28;20684;-76
2022/07/31 08:28:40;;;;;;;2.10;1.80;;;25.90;66.40;;;;;;5072027;28;20206;-76
2022/07/31 08:31:07;;;;;;;2.90;2.28;;;26.10;66.40;;;;;;5079255;28;20267;-75
2022/07/31 08:33:34;;;;;;;1.92;1.80;;;26.40;64.80;;;;;;5070631;28;20264;-75
2022/07/31 08:36:03;;;;;;;3.10;2.00;;;26.40;64.20;;;;;;5071084;28;20262;-75
2022/07/31 08:38:30;;;;;;;1.63;1.52;;;26.50;64.90;;;;;;5076904;28;20206;-75
2022/07/31 08:40:57;;;;;;;2.78;1.65;;;26.70;65.20;;;;;;5071122;28;20233;-74
2022/07/31 08:43:24;;;;;;;1.60;1.50;;;26.80;63.20;;;;;;5078789;28;20251;-74
2022/07/31 08:45:52;;;;;;;3.00;1.75;;;26.70;61.00;;;;;;5083602;28;20208;-73
2022/07/31 08:48:24;;;;;;;3.17;1.83;;;26.80;62.60;;;;;;5080452;28;20222;-75
2022/07/31 08:50:52;;;;;;;3.10;1.98;;;27.00;61.60;;;;;;5084819;28;20288;-74
2022/07/31 08:53:22;;;;;;;2.45;1.80;;;27.20;62.60;;;;;;5082834;28;20212;-75
2022/07/31 08:55:49;;;;;;;2.25;2.05;;;27.30;61.30;;;;;;5086278;28;20213;-76
2022/07/31 08:58:19;;;;;;;1.40;1.30;;;27.30;59.40;;;;;;5084978;28;20270;-75
2022/07/31 09:00:46;;;;;;;5.40;1.83;;;27.30;60.50;;;;;;5086796;28;20221;-74
2022/07/31 09:03:13;;;;;;;3.97;1.88;;;27.70;60.30;;;;;;5087152;28;20266;-75
2022/07/31 09:05:40;;;;;;;2.15;1.65;;;28.10;58.70;;;;;;5083596;28;20742;-74
2022/07/31 09:08:07;;;;;;;1.48;1.38;;;27.90;58.10;;;;;;5071031;28;20210;-74
2022/07/31 09:10:35;;;;;;;4.05;2.15;;;27.80;57.30;;;;;;5071756;28;20244;-73
2022/07/31 09:13:12;;;;;;;2.67;2.47;;;28.00;57.40;;;;;;5071404;28;20263;-74
2022/07/31 09:15:40;;;;;;;2.60;2.38;;;28.40;58.40;;;;;;5073020;28;20205;-75
2022/07/31 09:18:17;;;;;;;2.85;2.38;;;28.70;56.50;;;;;;5072927;28;20206;-75
2022/07/31 09:20:54;;;;;;;3.30;2.78;;;29.70;57.60;;;;;;5075561;28;20260;-75
2022/07/31 09:23:22;;;;;;;2.25;2.05;;;30.10;56.40;;;;;;5073687;28;20206;-77
2022/07/31 09:25:55;;;;;;;2.65;1.58;;;30.40;54.00;;;;;;5073259;28;20209;-76
2022/07/31 09:28:32;;;;;;;1.58;1.48;;;29.70;52.20;;;;;;5074728;28;20263;-78
2022/07/31 09:30:59;;;;;;;2.75;1.58;;;29.20;53.30;;;;;;5070736;28;20717;-74
2022/07/31 09:33:29;;;;;;;3.15;1.95;;;29.10;51.10;;;;;;5076171;28;20206;-75
2022/07/31 09:35:56;;;;;;;1.70;1.58;;;29.00;51.20;;;;;;5070366;28;20236;-75
2022/07/31 09:38:32;;;;;;;1.80;1.40;;;29.00;51.10;;;;;;5076963;28;20267;-76
2022/07/31 09:41:10;;;;;;;1.98;1.88;;;29.30;51.70;;;;;;5071242;28;20229;-75
2022/07/31 09:43:38;;;;;;;2.30;1.85;;;30.00;52.40;;;;;;5074399;28;20206;-79
2022/07/31 09:46:06;;;;;;;2.92;1.75;;;30.70;52.00;;;;;;5084451;28;20200;-76
2022/07/31 09:48:33;;;;;;;2.17;1.55;;;31.30;50.60;;;;;;5084677;28;20205;-79
2022/07/31 09:51:02;;;;;;;3.75;1.75;;;31.80;49.40;;;;;;5085166;28;20266;-79
2022/07/31 09:53:40;;;;;;;1.70;1.58;;;32.90;51.60;;;;;;5081542;28;20677;-79
2022/07/31 09:56:11;;;;;;;3.20;1.20;;;36.20;55.40;;;;;;5086487;28;20205;-76
2022/07/31 09:58:39;;;;;;;2.17;1.48;;;39.10;56.80;;;;;;5083809;28;20216;-80
2022/07/31 10:01:08;;;;;;;2.15;1.95;;;38.00;52.60;;;;;;5087375;28;20794;-83
2022/07/31 10:03:37;;;;;;;2.42;1.73;;;37.60;50.00;;;;;;5085675;28;20198;-81
2022/07/31 10:06:05;;;;;;;1.52;1.42;;;36.40;48.80;;;;;;5082294;28;20201;-78
2022/07/31 10:08:35;;;;;;;2.00;1.80;;;36.80;50.30;;;;;;5069455;28;20680;-77
2022/07/31 10:11:03;;;;;;;1.88;1.60;;;36.30;47.40;;;;;;5071818;28;20262;-79
2022/07/31 10:13:36;;;;;;;2.35;1.63;;;35.90;50.30;;;;;;5087301;28;20710;-80
2022/07/31 10:16:04;;;;;;;2.03;1.70;;;35.90;45.80;;;;;;5087035;28;20204;-78
2022/07/31 10:18:34;;;;;;;1.67;1.20;;;36.40;46.50;;;;;;5089975;28;20295;-82
2022/07/31 10:21:04;;;;;;;1.13;1.02;;;35.50;44.70;;;;;;5089039;28;20241;-80
2022/07/31 10:23:33;;;;;;;2.13;1.33;;;35.60;47.30;;;;;;5091442;28;20246;-80
2022/07/31 10:26:01;;;;;;;1.20;1.10;;;37.90;51.00;;;;;;5090207;28;20212;-81
2022/07/31 10:28:29;;;;;;;2.58;1.30;;;39.20;53.00;;;;;;5091807;28;20232;-81
2022/07/31 10:30:58;;;;;;;1.92;1.80;;;40.40;53.30;;;;;;5091537;28;20200;-81
2022/07/31 10:33:26;;;;;;;1.42;1.33;;;41.10;56.80;;;;;;5093066;28;20675;-81
2022/07/31 10:36:01;;;;;;;2.15;1.30;;;42.40;64.00;;;;;;5089076;28;20211;-81
2022/07/31 10:38:33;;;;;;;1.67;1.30;;;41.80;62.50;;;;;;5091582;28;20204;-80
2022/07/31 10:41:17;;;;;;;1.23;1.13;;;41.70;62.40;;;;;;5092102;28;20262;-79
2022/07/31 10:43:50;;;;;;;1.67;1.55;;;37.80;45.10;;;;;;5090493;28;20671;-80
2022/07/31 10:46:28;;;;;;;2.28;2.08;;;34.00;36.50;;;;;;5088849;28;20212;-80
2022/07/31 10:48:56;;;;;;;1.60;1.50;;;32.10;34.40;;;;;;5086533;28;20230;-80
2022/07/31 10:51:23;;;;;;;1.58;1.48;;;31.30;34.50;;;;;;5089483;28;20717;-79
2022/07/31 10:53:55;;;;;;;4.85;1.60;;;30.50;33.50;;;;;;5085571;28;20208;-79
2022/07/31 10:56:22;;;;;;;2.00;1.90;;;30.50;33.60;;;;;;5091537;28;20211;-78
2022/07/31 10:58:50;;;;;;;1.52;1.42;;;31.00;34.00;;;;;;5072506;28;20201;-85
2022/07/31 11:01:18;;;;;;;2.20;1.65;;;31.20;34.50;;;;;;5073154;28;20664;-79
2022/07/31 11:03:48;;;;;;;1.92;1.63;;;31.20;33.80;;;;;;5072111;28;20205;-77
2022/07/31 11:06:17;;;;;;;4.45;1.73;;;31.30;33.70;;;;;;5072756;28;20231;-77
2022/07/31 11:08:45;;;;;;;3.10;1.50;;;31.40;33.70;;;;;;5078539;28;20200;-78
2022/07/31 11:11:13;;;;;;;2.67;1.27;;;31.10;33.80;;;;;;5089281;28;20690;-77
2022/07/31 11:13:48;;;;;;;1.33;1.23;;;31.00;33.00;;;;;;5084197;28;20282;-77
2022/07/31 11:16:15;;;;;;;4.90;1.20;;;31.30;32.20;;;;;;5090122;28;20208;-77
2022/07/31 11:18:44;;;;;;;2.33;1.60;;;31.30;33.40;;;;;;5091783;28;20269;-78
2022/07/31 11:21:13;;;;;;;2.03;1.73;;;31.30;32.40;;;;;;5086671;28;20623;-77
2022/07/31 11:23:40;;;;;;;2.70;1.38;;;31.60;33.40;;;;;;5089287;28;20270;-79
2022/07/31 11:26:08;;;;;;;2.13;1.83;;;31.40;31.10;;;;;;5083774;28;20197;-76
2022/07/31 11:28:35;;;;;;;3.05;1.75;;;31.20;31.10;;;;;;5089040;28;20197;-78
2022/07/31 11:31:04;;;;;;;2.38;1.88;;;31.20;30.20;;;;;;5088120;28;20208;-79
2022/07/31 11:33:34;;;;;;;2.33;1.50;;;31.40;30.70;;;;;;5072162;28;20202;-78
2022/07/31 11:36:09;;;;;;;2.05;1.40;;;31.80;31.00;;;;;;5072226;28;20209;-76
2022/07/31 11:38:38;;;;;;;1.33;1.23;;;31.60;30.20;;;;;;5071469;28;20259;-78
2022/07/31 11:41:06;;;;;;;1.52;1.30;;;31.60;30.40;;;;;;5071661;28;20255;-78
2022/07/31 11:43:33;;;;;;;1.67;1.50;;;31.60;29.60;;;;;;5071359;28;20897;-78
2022/07/31 11:46:01;;;;;;;2.45;1.30;;;31.60;29.70;;;;;;5072195;28;20208;-80
2022/07/31 11:48:30;;;;;;;2.00;1.45;;;31.20;28.60;;;;;;5071807;28;20210;-76
2022/07/31 11:50:57;;;;;;;1.92;1.30;;;30.70;27.40;;;;;;5072200;28;20218;-80
2022/07/31 11:53:24;;;;;;;1.25;1.13;;;30.90;28.50;;;;;;5073072;28;20284;-77
2022/07/31 11:55:56;;;;;;;1.30;1.20;;;31.60;28.70;;;;;;5088867;28;20209;-78
2022/07/31 11:58:24;;;;;;;1.40;1.30;;;31.50;27.60;;;;;;5084448;28;20205;-80
2022/07/31 12:00:53;;;;;;;1.90;1.45;;;30.70;26.10;;;;;;5082058;28;20201;-84
2022/07/31 12:03:22;;;;;;;1.25;1.10;;;30.70;26.80;;;;;;5071442;28;20229;-75
2022/07/31 12:05:51;;;;;;;1.20;1.10;;;31.50;28.00;;;;;;5071431;28;20202;-77
2022/07/31 12:08:18;;;;;;;1.60;1.45;;;31.80;27.30;;;;;;5088457;28;20564;-76
2022/07/31 12:10:46;;;;;;;2.42;1.38;;;32.30;27.20;;;;;;5087231;28;20209;-75
2022/07/31 12:13:16;;;;;;;2.05;1.20;;;32.50;28.60;;;;;;5082219;28;20278;-76
2022/07/31 12:15:58;;;;;;;3.83;1.85;;;32.20;26.00;;;;;;5070796;28;20676;-76
2022/07/31 12:18:26;;;;;;;1.65;1.55;;;31.80;27.20;;;;;;5071447;28;20205;-75
2022/07/31 12:20:54;;;;;;;1.77;1.67;;;32.30;26.90;;;;;;5070625;28;20263;-79
2022/07/31 12:23:22;;;;;;;1.27;1.17;;;32.20;25.60;;;;;;5079647;28;20235;-76
2022/07/31 12:25:49;;;;;;;1.45;1.40;;;32.20;25.60;;;;;;5086516;28;20208;-82
2022/07/31 12:28:18;;;;;;;1.83;1.73;;;32.40;26.70;;;;;;5075891;28;20209;-77
2022/07/31 12:30:46;;;;;;;1.65;1.00;;;32.20;25.30;;;;;;5070470;28;20259;-76
2022/07/31 12:33:13;;;;;;;1.30;1.30;;;32.20;25.30;;;;;;5070875;28;20205;-76
2022/07/31 12:35:42;;;;;;;1.60;1.00;;;32.30;25.60;;;;;;5070462;28;20208;-83
2022/07/31 12:38:10;;;;;;;1.98;1.05;;;32.50;25.50;;;;;;5069179;28;20197;-78
2022/07/31 12:40:37;;;;;;;1.58;0.80;;;32.50;24.10;;;;;;5070052;28;20201;-78
2022/07/31 12:43:05;;;;;;;2.05;1.40;;;32.60;24.20;;;;;;5070468;28;20256;-77
2022/07/31 12:45:35;;;;;;;1.55;1.45;;;32.50;24.10;;;;;;5070752;28;20288;-77
2022/07/31 12:48:03;;;;;;;1.85;1.00;;;32.80;25.10;;;;;;5074774;28;20213;-78
2022/07/31 12:50:32;;;;;;;1.58;1.35;;;32.60;23.90;;;;;;5087763;28;20621;-82
2022/07/31 12:53:01;;;;;;;2.05;1.05;;;32.50;24.60;;;;;;5081339;28;20683;-78